Time;durP1;ratioP1;P1;durP2;ratioP2;P2;SDS_P1;SDS_P2;PMS_P1;PMS_P2;Temp;Humidity;BMP_temperature;BMP_pressure;BME280_temperature;BME280_humidity;BME280_pressure;Samples;Min_cycle;Max_cycle;Signal;HPM_P1;HPM_P2
2022/05/13 00:01:07;;;;;;;14.77;4.88;;;23.80;67.00;;;;;;5039059;28;20060;-60
2022/05/13 00:03:32;;;;;;;17.88;5.35;;;23.80;67.10;;;;;;5035455;28;20048;-62
2022/05/13 00:05:58;;;;;;;14.00;5.82;;;23.80;67.10;;;;;;5039903;28;20033;-61
2022/05/13 00:08:24;;;;;;;15.45;5.97;;;23.70;67.20;;;;;;5023246;28;20469;-60
2022/05/13 00:10:49;;;;;;;14.32;5.68;;;23.70;67.40;;;;;;5042837;28;20287;-63
2022/05/13 00:13:15;;;;;;;16.50;5.70;;;23.70;67.60;;;;;;5024188;28;20432;-63
2022/05/13 00:15:42;;;;;;;17.27;6.22;;;23.70;67.70;;;;;;5023353;28;20114;-62
2022/05/13 00:18:08;;;;;;;11.82;5.38;;;23.70;67.80;;;;;;5042470;28;20476;-61
2022/05/13 00:20:34;;;;;;;21.13;6.25;;;23.60;67.80;;;;;;5042627;28;20041;-62
2022/05/13 00:22:59;;;;;;;15.35;5.32;;;23.60;67.90;;;;;;5025832;28;20212;-60
2022/05/13 00:25:27;;;;;;;12.80;5.13;;;23.50;68.00;;;;;;5041634;28;20104;-61
2022/05/13 00:27:57;;;;;;;13.77;5.53;;;23.50;68.10;;;;;;5040598;28;20021;-61
2022/05/13 00:30:22;;;;;;;14.10;5.57;;;23.50;68.20;;;;;;5024236;28;20579;-62
2022/05/13 00:32:49;;;;;;;14.13;5.35;;;23.50;68.30;;;;;;5041409;28;20025;-60
2022/05/13 00:35:15;;;;;;;14.40;5.30;;;23.50;68.60;;;;;;5042827;28;20132;-60
2022/05/13 00:37:40;;;;;;;10.07;4.82;;;23.40;68.60;;;;;;5041236;28;20036;-62
2022/05/13 00:40:06;;;;;;;16.90;5.43;;;23.40;68.70;;;;;;5043992;28;20064;-62
2022/05/13 00:42:32;;;;;;;11.95;5.07;;;23.40;68.80;;;;;;5037001;28;20033;-62
2022/05/13 00:44:58;;;;;;;11.77;5.30;;;23.40;69.00;;;;;;5043114;28;20043;-67
2022/05/13 00:47:24;;;;;;;15.05;5.10;;;23.40;69.10;;;;;;5043294;28;20023;-60
2022/05/13 00:49:50;;;;;;;14.90;5.70;;;23.40;69.30;;;;;;5042616;28;20031;-61
2022/05/13 00:52:15;;;;;;;14.70;5.68;;;23.40;69.60;;;;;;5040091;28;20104;-62
2022/05/13 00:54:41;;;;;;;15.18;5.60;;;23.40;69.70;;;;;;5008094;28;20489;-61
2022/05/13 00:57:07;;;;;;;13.30;6.00;;;23.30;69.90;;;;;;5022908;28;20059;-62
2022/05/13 00:59:34;;;;;;;12.10;5.53;;;23.30;70.00;;;;;;5042120;28;20103;-61
2022/05/13 01:01:59;;;;;;;13.35;5.25;;;23.30;70.10;;;;;;5024979;28;20025;-63
2022/05/13 01:04:25;;;;;;;10.10;5.65;;;23.20;70.10;;;;;;5040115;28;20534;-60
2022/05/13 01:06:52;;;;;;;11.73;5.43;;;23.20;70.20;;;;;;5041760;28;20041;-61
2022/05/13 01:09:18;;;;;;;13.35;5.75;;;23.20;70.40;;;;;;5019559;28;20086;-62
2022/05/13 01:11:44;;;;;;;10.63;5.60;;;23.20;70.50;;;;;;5008110;28;20025;-61
2022/05/13 01:14:29;;;;;;;18.70;5.57;;;23.20;70.40;;;;;;5040429;28;20341;-62
2022/05/13 01:19:38;;;;;;;9.70;5.38;;;23.10;70.50;;;;;;5039138;28;20137;-63
2022/05/13 01:22:14;;;;;;;14.35;5.45;;;23.10;70.50;;;;;;5038978;28;20478;-62
2022/05/13 01:24:40;;;;;;;13.52;5.90;;;23.10;70.70;;;;;;5023983;28;20544;-62
2022/05/13 01:27:05;;;;;;;12.00;5.45;;;23.10;70.80;;;;;;5037509;28;20081;-62
2022/05/13 01:29:31;;;;;;;14.60;5.65;;;23.10;70.90;;;;;;5041143;28;20120;-62
2022/05/13 01:31:56;;;;;;;12.18;5.70;;;23.10;71.10;;;;;;5040692;28;20037;-62
2022/05/13 01:34:22;;;;;;;10.90;5.65;;;23.10;71.10;;;;;;5038400;28;20389;-60
2022/05/13 01:36:47;;;;;;;12.48;6.03;;;23.00;71.20;;;;;;5041064;28;20200;-61
2022/05/13 01:39:13;;;;;;;10.88;5.80;;;23.00;71.20;;;;;;5040889;28;20041;-62
2022/05/13 01:41:38;;;;;;;10.95;5.90;;;23.00;71.30;;;;;;5041611;28;20060;-61
2022/05/13 01:44:04;;;;;;;12.82;5.55;;;23.00;71.40;;;;;;5024093;28;20047;-62
2022/05/13 01:46:30;;;;;;;7.22;5.90;;;23.00;71.40;;;;;;5037810;28;20123;-61
2022/05/13 01:48:55;;;;;;;9.52;6.00;;;23.00;71.40;;;;;;5040101;28;20174;-62
2022/05/13 01:51:21;;;;;;;10.65;5.68;;;23.00;71.50;;;;;;5040356;28;20473;-62
2022/05/13 01:53:47;;;;;;;7.88;5.32;;;23.00;71.50;;;;;;5039533;28;20046;-61
2022/05/13 01:56:12;;;;;;;13.90;5.80;;;23.00;71.60;;;;;;5040934;28;20040;-62
2022/05/13 01:58:38;;;;;;;9.82;5.82;;;23.00;71.60;;;;;;5039235;28;20341;-62
2022/05/13 02:01:04;;;;;;;15.23;5.80;;;23.00;71.60;;;;;;5038397;28;20428;-60
2022/05/13 02:03:45;;;;;;;9.80;5.75;;;22.90;71.40;;;;;;5007095;28;20033;-62
2022/05/13 02:06:16;;;;;;;15.63;6.40;;;22.90;71.40;;;;;;5038986;28;20507;-61
2022/05/13 02:08:42;;;;;;;16.23;6.35;;;22.90;71.50;;;;;;5037718;28;20033;-61
2022/05/13 02:11:07;;;;;;;12.98;6.07;;;22.90;71.70;;;;;;5023769;28;20021;-62
2022/05/13 02:13:33;;;;;;;12.68;6.68;;;22.90;71.90;;;;;;5033872;28;20037;-61
2022/05/13 02:15:59;;;;;;;11.85;6.50;;;22.90;72.10;;;;;;5020900;28;20057;-62
2022/05/13 02:18:25;;;;;;;9.60;6.60;;;22.90;72.00;;;;;;5037426;28;20021;-62
2022/05/13 02:20:50;;;;;;;11.80;6.10;;;22.90;71.90;;;;;;5035106;28;20048;-63
2022/05/13 02:23:18;;;;;;;10.98;6.07;;;22.90;71.90;;;;;;5022655;28;20056;-61
2022/05/13 02:25:44;;;;;;;10.57;5.65;;;22.80;72.00;;;;;;5036516;28;20146;-61
2022/05/13 02:28:09;;;;;;;10.43;6.40;;;22.80;72.30;;;;;;5037862;28;20727;-62
2022/05/13 02:30:35;;;;;;;11.45;6.72;;;22.80;72.50;;;;;;5038544;28;20037;-62
2022/05/13 02:33:01;;;;;;;12.75;6.63;;;22.80;72.50;;;;;;5039189;28;20045;-62
2022/05/13 02:35:27;;;;;;;11.70;7.43;;;22.80;72.60;;;;;;5036833;28;20120;-61
2022/05/13 02:37:53;;;;;;;12.23;6.72;;;22.70;72.60;;;;;;5036305;28;20071;-63
2022/05/13 02:40:18;;;;;;;12.88;6.68;;;22.80;72.70;;;;;;5036102;28;20049;-60
2022/05/13 02:42:44;;;;;;;9.82;7.15;;;22.70;72.80;;;;;;5038592;28;20032;-62
2022/05/13 02:45:10;;;;;;;12.38;6.70;;;22.70;72.80;;;;;;5021160;28;20070;-61
2022/05/13 02:47:39;;;;;;;10.93;6.45;;;22.70;72.90;;;;;;5007500;28;20357;-61
2022/05/13 02:50:17;;;;;;;11.88;6.65;;;22.70;72.70;;;;;;5033032;28;20292;-61
2022/05/13 02:52:43;;;;;;;13.27;6.28;;;22.70;72.70;;;;;;5034997;28;20037;-61
2022/05/13 02:55:09;;;;;;;10.85;6.43;;;22.70;72.70;;;;;;5035408;28;20030;-61
2022/05/13 02:57:34;;;;;;;13.05;6.88;;;22.70;72.70;;;;;;5039403;28;20043;-61
2022/05/13 03:00:00;;;;;;;12.13;6.63;;;22.70;72.90;;;;;;5038036;28;20053;-62
2022/05/13 03:02:26;;;;;;;10.73;6.22;;;22.60;73.00;;;;;;5040112;28;20032;-61
2022/05/13 03:04:51;;;;;;;13.18;6.97;;;22.60;73.10;;;;;;5036194;28;20045;-63
2022/05/13 03:07:17;;;;;;;16.83;6.13;;;22.60;73.30;;;;;;5037723;28;20029;-60
2022/05/13 03:09:43;;;;;;;12.35;5.93;;;22.60;73.30;;;;;;5037935;28;20161;-62
2022/05/13 03:12:09;;;;;;;12.43;6.28;;;22.60;73.20;;;;;;5004642;28;20033;-63
2022/05/13 03:14:34;;;;;;;15.85;5.72;;;22.60;73.20;;;;;;5037778;28;20373;-62
2022/05/13 03:17:00;;;;;;;13.20;6.28;;;22.60;73.40;;;;;;5037274;28;20127;-62
2022/05/13 03:19:25;;;;;;;12.95;6.05;;;22.60;73.30;;;;;;5031147;28;20047;-61
2022/05/13 03:21:51;;;;;;;11.15;6.03;;;22.60;73.30;;;;;;5039877;28;20032;-62
2022/05/13 03:24:16;;;;;;;10.60;6.07;;;22.50;73.30;;;;;;5039696;28;20032;-63
2022/05/13 03:26:42;;;;;;;10.48;5.70;;;22.50;73.50;;;;;;5037535;28;20484;-61
2022/05/13 03:29:07;;;;;;;10.10;5.55;;;22.50;73.60;;;;;;5036478;28;20028;-60
2022/05/13 03:31:34;;;;;;;17.67;5.97;;;22.50;73.60;;;;;;5031980;28;20503;-61
2022/05/13 03:34:00;;;;;;;14.85;5.82;;;22.50;73.60;;;;;;5039766;28;20230;-62
2022/05/13 03:36:25;;;;;;;10.98;5.35;;;22.50;73.50;;;;;;5021816;28;20029;-62
2022/05/13 03:38:51;;;;;;;13.95;5.70;;;22.50;73.60;;;;;;5021426;28;21524;-61
2022/05/13 03:41:16;;;;;;;12.35;5.70;;;22.50;73.60;;;;;;5037229;28;20040;-60
2022/05/13 03:43:42;;;;;;;12.70;5.90;;;22.50;73.60;;;;;;5045176;28;20341;-62
2022/05/13 03:46:08;;;;;;;8.57;5.32;;;22.50;73.60;;;;;;5043078;28;20112;-61
2022/05/13 03:48:33;;;;;;;13.70;5.20;;;22.40;73.40;;;;;;5039723;28;20029;-62
2022/05/13 03:50:59;;;;;;;13.68;5.40;;;22.40;73.50;;;;;;5043944;28;20070;-62
2022/05/13 03:53:24;;;;;;;13.85;5.25;;;22.40;73.50;;;;;;5044458;28;20525;-60
2022/05/13 03:55:50;;;;;;;16.88;5.13;;;22.40;73.40;;;;;;5043278;28;20034;-62
2022/05/13 03:58:15;;;;;;;7.40;4.82;;;22.40;73.30;;;;;;5039868;28;20044;-61
2022/05/13 04:00:41;;;;;;;11.23;5.40;;;22.40;73.30;;;;;;5040936;28;20076;-61
2022/05/13 04:03:07;;;;;;;12.88;5.20;;;22.40;73.30;;;;;;5043609;28;20102;-60
2022/05/13 04:11:00;;;;;;;12.60;6.65;;;22.30;73.90;;;;;;5040438;28;20544;-61
2022/05/13 04:16:10;;;;;;;17.23;6.20;;;22.30;74.00;;;;;;5041623;28;20083;-62
2022/05/13 04:18:40;;;;;;;14.02;6.60;;;22.30;74.10;;;;;;5028708;28;20053;-61
2022/05/13 04:21:10;;;;;;;13.25;6.10;;;22.20;74.10;;;;;;5027994;28;20056;-60
2022/05/13 04:23:36;;;;;;;12.65;6.22;;;22.20;74.00;;;;;;5027477;28;20063;-60
2022/05/13 04:26:02;;;;;;;14.85;6.18;;;22.20;74.00;;;;;;5024565;28;20025;-62
2022/05/13 04:28:28;;;;;;;13.55;6.18;;;22.20;74.20;;;;;;5045525;28;20031;-61
2022/05/13 04:30:53;;;;;;;13.95;6.68;;;22.10;74.10;;;;;;5025650;28;20116;-61
2022/05/13 04:33:19;;;;;;;13.43;5.78;;;22.20;74.10;;;;;;5012580;28;20048;-62
2022/05/13 04:35:44;;;;;;;34.85;8.05;;;22.10;74.20;;;;;;5025428;28;20067;-61
2022/05/13 04:38:10;;;;;;;52.00;9.48;;;22.10;74.30;;;;;;5042855;28;20048;-61
2022/05/13 04:40:35;;;;;;;40.63;8.48;;;22.10;74.30;;;;;;5040673;28;20362;-63
2022/05/13 04:43:01;;;;;;;33.13;8.23;;;22.10;74.40;;;;;;5043433;28;20570;-62
2022/05/13 04:45:29;;;;;;;30.17;7.88;;;22.10;74.30;;;;;;5041246;28;20059;-60
2022/05/13 04:48:16;;;;;;;35.88;8.02;;;22.10;74.20;;;;;;5023140;28;20024;-61
2022/05/13 04:50:52;;;;;;;30.02;7.78;;;22.10;74.30;;;;;;5041827;28;20040;-60
2022/05/13 04:53:20;;;;;;;29.23;7.93;;;22.00;74.30;;;;;;5041041;28;20044;-61
2022/05/13 04:55:46;;;;;;;32.00;8.02;;;22.10;74.30;;;;;;5041117;28;20123;-62
2022/05/13 04:58:12;;;;;;;29.17;7.57;;;22.10;74.30;;;;;;5040609;28;20107;-61
2022/05/13 05:00:37;;;;;;;26.92;7.20;;;22.10;74.30;;;;;;5038049;28;20354;-60
2022/05/13 05:03:03;;;;;;;35.83;8.13;;;22.00;74.30;;;;;;5039759;28;20047;-63
2022/05/13 05:05:28;;;;;;;37.90;8.25;;;22.00;74.10;;;;;;5038395;28;20491;-61
2022/05/13 05:07:54;;;;;;;39.72;8.30;;;22.10;74.20;;;;;;5038123;28;20453;-61
2022/05/13 05:10:21;;;;;;;37.67;8.32;;;22.00;74.10;;;;;;5017356;28;20078;-60
2022/05/13 05:12:48;;;;;;;29.70;6.53;;;22.00;73.90;;;;;;5037853;28;20041;-62
2022/05/13 05:15:14;;;;;;;28.42;6.93;;;22.10;73.90;;;;;;5005536;28;20021;-61
2022/05/13 05:17:40;;;;;;;25.50;6.85;;;22.00;73.80;;;;;;5038057;28;20417;-61
2022/05/13 05:20:06;;;;;;;29.83;7.53;;;22.00;73.80;;;;;;5041052;28;20639;-61
2022/05/13 05:22:31;;;;;;;31.17;7.03;;;22.00;73.70;;;;;;5024873;28;20118;-61
2022/05/13 05:24:57;;;;;;;28.60;6.28;;;22.10;73.70;;;;;;5039022;28;20028;-61
2022/05/13 05:27:23;;;;;;;34.47;7.35;;;22.00;73.70;;;;;;5041895;28;20104;-62
2022/05/13 05:29:48;;;;;;;26.83;6.63;;;22.00;73.90;;;;;;5039900;28;20569;-61
2022/05/13 05:32:14;;;;;;;24.88;6.70;;;22.10;74.00;;;;;;5041553;28;20045;-61
2022/05/13 05:34:39;;;;;;;29.55;5.85;;;22.10;74.20;;;;;;5035987;28;20049;-62
2022/05/13 05:37:05;;;;;;;23.13;6.45;;;22.00;73.90;;;;;;5032601;28;20511;-62
2022/05/13 05:39:30;;;;;;;26.95;6.55;;;22.00;73.80;;;;;;5039513;28;20140;-60
2022/05/13 05:41:56;;;;;;;23.58;6.53;;;22.00;73.80;;;;;;5036311;28;20444;-61
2022/05/13 05:44:21;;;;;;;26.30;6.10;;;22.00;73.90;;;;;;5040682;28;20021;-62
2022/05/13 05:46:47;;;;;;;21.98;7.00;;;22.00;73.90;;;;;;5038842;28;20346;-62
2022/05/13 05:49:12;;;;;;;18.30;5.43;;;22.00;74.00;;;;;;5041763;28;20136;-60
2022/05/13 05:51:38;;;;;;;22.63;5.82;;;22.00;74.10;;;;;;5037309;28;20136;-60
2022/05/13 05:59:32;;;;;;;20.75;6.05;;;22.10;74.50;;;;;;5040117;28;21486;-62
2022/05/13 06:01:57;;;;;;;21.10;5.78;;;22.00;74.10;;;;;;5022677;28;20120;-62
2022/05/13 06:04:23;;;;;;;18.13;5.28;;;22.10;74.00;;;;;;5018668;28;20307;-63
2022/05/13 06:06:48;;;;;;;17.83;4.72;;;22.10;74.90;;;;;;5017825;28;20109;-61
2022/05/13 06:09:14;;;;;;;17.85;4.32;;;22.10;75.10;;;;;;5017277;28;20037;-63
2022/05/13 06:11:40;;;;;;;13.98;4.55;;;22.00;75.40;;;;;;5032986;28;20412;-63
2022/05/13 06:14:05;;;;;;;11.45;3.92;;;22.00;76.00;;;;;;5037763;28;20043;-62
2022/05/13 06:16:31;;;;;;;15.88;4.55;;;22.00;76.10;;;;;;5035415;28;20201;-60
2022/05/13 06:19:00;;;;;;;14.70;4.72;;;21.90;76.40;;;;;;5035017;28;20460;-62
2022/05/13 06:21:26;;;;;;;11.38;4.30;;;21.90;76.20;;;;;;5018365;28;20412;-61
2022/05/13 06:23:52;;;;;;;10.02;4.15;;;21.90;76.50;;;;;;5040868;28;20040;-63
2022/05/13 06:26:17;;;;;;;7.78;3.80;;;21.90;76.10;;;;;;5036791;28;20267;-60
2022/05/13 06:28:43;;;;;;;13.10;3.90;;;21.90;75.90;;;;;;5038120;28;20025;-64
2022/05/13 06:31:09;;;;;;;19.58;4.40;;;22.00;75.90;;;;;;5033763;28;20041;-63
2022/05/13 06:33:34;;;;;;;15.52;4.18;;;22.00;75.70;;;;;;5031970;28;20894;-62
2022/05/13 06:36:00;;;;;;;14.02;3.90;;;22.00;76.00;;;;;;5035048;28;20127;-60
2022/05/13 06:38:25;;;;;;;8.68;3.63;;;22.00;76.10;;;;;;5019269;28;20033;-61
2022/05/13 06:40:52;;;;;;;20.30;4.72;;;22.00;76.40;;;;;;5035253;28;20102;-61
2022/05/13 06:43:18;;;;;;;10.75;4.10;;;21.90;77.10;;;;;;5032993;28;20024;-62
2022/05/13 06:45:44;;;;;;;13.63;4.28;;;22.00;76.50;;;;;;5036573;28;20033;-61
2022/05/13 06:48:09;;;;;;;10.35;3.75;;;22.00;76.30;;;;;;5020560;28;20029;-62
2022/05/13 06:50:35;;;;;;;18.65;4.03;;;22.00;76.50;;;;;;5016070;28;20025;-60
2022/05/13 06:53:01;;;;;;;12.90;4.32;;;22.00;76.70;;;;;;5034120;28;20440;-60
2022/05/13 06:55:26;;;;;;;10.88;3.42;;;22.00;76.80;;;;;;5034901;28;20061;-61
2022/05/13 06:57:52;;;;;;;9.18;3.72;;;22.00;76.90;;;;;;5033939;28;20032;-61
2022/05/13 07:00:17;;;;;;;7.00;3.42;;;22.10;76.90;;;;;;5017365;28;20032;-64
2022/05/13 07:02:43;;;;;;;15.98;4.57;;;22.10;76.80;;;;;;5034849;28;20454;-63
2022/05/13 07:05:10;;;;;;;15.07;4.13;;;22.10;76.70;;;;;;5033179;28;20421;-62
2022/05/13 07:07:36;;;;;;;34.25;6.35;;;22.10;76.80;;;;;;5019298;28;20087;-62
2022/05/13 07:10:01;;;;;;;26.50;5.22;;;22.20;76.70;;;;;;5018450;28;20016;-61
2022/05/13 07:12:27;;;;;;;23.27;4.53;;;22.20;76.70;;;;;;5033189;28;21009;-62
2022/05/13 07:14:53;;;;;;;36.17;5.75;;;22.20;76.80;;;;;;5032297;28;20539;-63
2022/05/13 07:17:19;;;;;;;36.65;5.88;;;22.20;76.90;;;;;;5035709;28;20039;-60
2022/05/13 07:19:45;;;;;;;26.92;5.65;;;22.30;76.50;;;;;;5015364;28;20225;-62
2022/05/13 07:22:10;;;;;;;21.35;4.88;;;22.30;76.90;;;;;;5035118;28;20098;-62
2022/05/13 07:24:36;;;;;;;56.83;7.72;;;22.30;76.70;;;;;;5035508;28;20025;-63
2022/05/13 07:27:02;;;;;;;63.17;8.55;;;22.30;76.70;;;;;;5031574;28;20045;-61
2022/05/13 07:29:28;;;;;;;74.82;8.25;;;22.30;76.90;;;;;;5030989;28;20025;-60
2022/05/13 07:31:53;;;;;;;40.63;8.05;;;22.30;76.90;;;;;;5035502;28;20371;-63
2022/05/13 07:34:19;;;;;;;40.47;7.03;;;22.30;77.10;;;;;;5027783;28;20414;-61
2022/05/13 07:36:45;;;;;;;63.80;7.65;;;22.30;77.40;;;;;;5035107;28;20086;-64
2022/05/13 07:41:54;;;;;;;87.32;10.13;;;22.40;77.00;;;;;;5027783;28;20174;-62
2022/05/13 07:44:20;;;;;;;130.07;16.05;;;22.50;76.80;;;;;;5032339;28;20104;-62
2022/05/13 07:46:45;;;;;;;76.63;10.70;;;22.50;77.10;;;;;;5015595;28;20060;-60
2022/05/13 07:49:11;;;;;;;134.63;16.48;;;22.50;77.60;;;;;;5024916;28;20056;-61
2022/05/13 07:51:36;;;;;;;101.35;12.90;;;22.50;77.70;;;;;;5031967;28;20029;-61
2022/05/13 07:54:02;;;;;;;104.85;15.02;;;22.50;77.30;;;;;;5026444;28;20030;-61
2022/05/13 07:56:28;;;;;;;123.20;16.15;;;22.50;77.30;;;;;;5015655;28;20051;-64
2022/05/13 07:58:54;;;;;;;105.53;14.32;;;22.50;77.40;;;;;;5019172;28;20075;-62
2022/05/13 08:01:19;;;;;;;88.53;12.18;;;22.50;77.20;;;;;;5015610;28;20033;-63
2022/05/13 08:03:46;;;;;;;100.65;13.90;;;22.50;77.10;;;;;;5022087;28;20033;-64
2022/05/13 08:06:13;;;;;;;95.95;12.77;;;22.60;77.50;;;;;;5019326;28;20067;-60
2022/05/13 08:08:43;;;;;;;87.07;12.45;;;22.60;77.30;;;;;;5017354;28;20029;-61
2022/05/13 08:11:14;;;;;;;108.78;14.98;;;22.60;76.90;;;;;;5007916;28;20476;-62
2022/05/13 08:13:39;;;;;;;106.68;13.85;;;22.60;76.80;;;;;;5023157;28;20036;-62
2022/05/13 08:16:09;;;;;;;105.28;14.52;;;22.70;76.90;;;;;;5029078;28;20021;-62
2022/05/13 08:18:34;;;;;;;109.85;13.27;;;22.70;77.20;;;;;;5034216;28;20143;-61
2022/05/13 08:21:00;;;;;;;79.45;11.88;;;22.70;76.90;;;;;;5012161;28;20030;-63
2022/05/13 08:23:26;;;;;;;103.97;12.07;;;22.70;77.20;;;;;;5030840;28;20036;-63
2022/05/13 08:25:52;;;;;;;84.53;12.50;;;22.80;78.00;;;;;;5031600;28;20132;-60
2022/05/13 08:28:19;;;;;;;108.78;13.13;;;22.70;77.60;;;;;;5032301;28;20043;-62
2022/05/13 08:30:45;;;;;;;92.78;11.52;;;22.70;77.50;;;;;;5029007;28;20049;-60
2022/05/13 08:33:11;;;;;;;74.45;11.88;;;22.80;77.60;;;;;;5036241;28;20690;-62
2022/05/13 08:35:37;;;;;;;76.47;10.15;;;22.80;77.80;;;;;;5037160;28;20048;-62
2022/05/13 08:38:03;;;;;;;85.15;9.98;;;22.80;77.40;;;;;;5037655;28;20024;-60
2022/05/13 08:40:52;;;;;;;74.88;12.65;;;22.80;77.80;;;;;;5019018;28;20052;-61
2022/05/13 08:43:23;;;;;;;90.72;11.43;;;22.80;77.30;;;;;;5032760;28;20549;-61
2022/05/13 08:45:56;;;;;;;76.20;10.00;;;22.80;77.40;;;;;;5034663;28;20060;-61
2022/05/13 08:48:30;;;;;;;91.32;10.30;;;22.90;77.60;;;;;;5018073;28;20025;-62
2022/05/13 08:51:10;;;;;;;102.85;12.38;;;22.90;77.80;;;;;;5019599;28;20492;-63
2022/05/13 08:53:41;;;;;;;80.70;11.68;;;22.90;77.80;;;;;;5037363;28;20028;-62
2022/05/13 08:56:09;;;;;;;88.38;11.80;;;22.90;77.50;;;;;;5005399;28;20040;-60
2022/05/13 08:58:54;;;;;;;97.03;12.70;;;23.00;77.60;;;;;;5006666;28;20052;-61
2022/05/13 09:01:27;;;;;;;94.28;13.45;;;23.00;77.90;;;;;;5038324;28;20055;-62
2022/05/13 09:03:56;;;;;;;96.13;11.32;;;23.00;77.60;;;;;;5033828;28;20063;-61
2022/05/13 09:06:46;;;;;;;71.00;9.98;;;23.00;77.60;;;;;;5024215;28;20033;-61
2022/05/13 09:09:11;;;;;;;64.50;9.32;;;23.10;77.40;;;;;;5038175;28;20128;-61
2022/05/13 09:11:59;;;;;;;101.00;11.85;;;23.10;77.70;;;;;;5030817;28;20204;-61
2022/05/13 09:14:47;;;;;;;75.80;10.23;;;23.20;77.30;;;;;;5012310;28;20762;-61
2022/05/13 09:17:36;;;;;;;66.18;9.57;;;23.30;76.80;;;;;;5033780;28;20143;-62
2022/05/13 09:20:11;;;;;;;55.75;8.23;;;23.30;76.80;;;;;;5024216;28;20033;-65
2022/05/13 09:22:36;;;;;;;43.65;9.20;;;23.30;76.80;;;;;;5021846;28;20028;-64
2022/05/13 09:25:02;;;;;;;50.75;8.70;;;23.40;76.80;;;;;;5027102;28;20478;-62
2022/05/13 09:27:28;;;;;;;59.30;9.40;;;23.40;76.90;;;;;;5035956;28;20029;-62
2022/05/13 09:29:53;;;;;;;45.90;6.90;;;23.50;76.70;;;;;;5031358;28;20032;-63
2022/05/13 09:32:27;;;;;;;43.72;7.40;;;23.50;76.70;;;;;;5027036;28;20108;-60
2022/05/13 09:35:05;;;;;;;52.92;7.15;;;23.50;76.50;;;;;;5034281;28;20048;-61
2022/05/13 09:37:35;;;;;;;52.30;8.30;;;23.50;76.40;;;;;;5019788;28;20624;-62
2022/05/13 09:40:23;;;;;;;58.75;9.35;;;23.50;76.80;;;;;;5037600;28;20452;-62
2022/05/13 09:42:53;;;;;;;57.03;9.18;;;23.50;76.50;;;;;;5033877;28;20032;-65
2022/05/13 09:45:26;;;;;;;70.43;9.90;;;23.50;76.50;;;;;;5018385;28;20025;-60
2022/05/13 09:48:18;;;;;;;76.82;10.18;;;23.60;76.50;;;;;;5036553;28;20025;-60
2022/05/13 09:50:55;;;;;;;57.15;9.68;;;23.60;76.60;;;;;;5025857;28;20071;-61
2022/05/13 09:53:21;;;;;;;51.65;9.93;;;23.60;76.30;;;;;;5016397;28;20104;-62
2022/05/13 09:55:47;;;;;;;62.50;8.43;;;23.60;76.40;;;;;;5037227;28;20035;-62
2022/05/13 09:58:21;;;;;;;76.35;9.80;;;23.70;76.30;;;;;;5034859;28;20033;-60
2022/05/13 10:00:49;;;;;;;54.38;8.45;;;23.60;76.10;;;;;;5034541;28;20048;-62
2022/05/13 10:03:18;;;;;;;51.38;9.18;;;23.60;76.10;;;;;;5027668;28;20071;-60
2022/05/13 10:05:44;;;;;;;55.35;8.00;;;23.60;75.90;;;;;;5040642;28;20037;-60
2022/05/13 10:08:14;;;;;;;48.85;8.50;;;23.60;76.00;;;;;;5019121;28;20033;-63
2022/05/13 10:16:12;;;;;;;60.78;8.18;;;23.40;75.20;;;;;;5029932;28;20036;-63
2022/05/13 10:18:59;;;;;;;56.50;8.18;;;23.40;75.00;;;;;;5019898;28;20030;-60
2022/05/13 10:21:29;;;;;;;69.95;8.02;;;23.40;74.90;;;;;;5016586;28;20067;-62
2022/05/13 10:24:02;;;;;;;66.85;9.25;;;23.30;74.80;;;;;;5023270;28;20063;-62
2022/05/13 10:26:30;;;;;;;69.72;10.98;;;23.30;74.90;;;;;;5037353;28;20114;-61
2022/05/13 10:29:09;;;;;;;62.03;10.00;;;23.30;75.40;;;;;;5035977;28;20095;-61
2022/05/13 10:31:43;;;;;;;55.22;8.05;;;23.20;75.40;;;;;;5019855;28;20064;-59
2022/05/13 10:34:31;;;;;;;59.45;9.63;;;23.30;75.00;;;;;;5009119;28;20364;-62
2022/05/13 10:37:05;;;;;;;63.75;8.30;;;23.30;74.80;;;;;;5027867;28;20115;-61
2022/05/13 10:39:48;;;;;;;76.93;9.35;;;23.20;74.70;;;;;;5026278;28;20495;-62
2022/05/13 10:42:26;;;;;;;53.80;7.82;;;23.20;74.60;;;;;;5026002;28;20134;-62
2022/05/13 10:45:07;;;;;;;41.17;7.80;;;23.20;74.50;;;;;;5026825;28;20018;-60
2022/05/13 10:47:40;;;;;;;67.47;8.45;;;23.20;74.60;;;;;;5013474;28;20871;-61
2022/05/13 10:50:10;;;;;;;73.68;8.32;;;23.30;74.70;;;;;;5012865;28;20037;-61
2022/05/13 10:52:58;;;;;;;73.35;9.50;;;23.20;74.80;;;;;;5012518;28;20041;-61
2022/05/13 10:55:29;;;;;;;57.63;9.48;;;23.20;74.90;;;;;;5024225;28;20556;-61
2022/05/13 10:58:16;;;;;;;75.07;9.82;;;23.20;75.00;;;;;;5023676;28;20037;-62
2022/05/13 11:00:54;;;;;;;78.10;9.85;;;23.20;75.00;;;;;;5017327;28;20394;-61
2022/05/13 11:03:35;;;;;;;74.82;10.05;;;23.20;74.80;;;;;;5008798;28;20426;-63
2022/05/13 11:06:44;;;;;;;68.45;10.20;;;23.20;74.60;;;;;;5022720;28;20043;-62
2022/05/13 11:09:46;;;;;;;57.45;8.65;;;23.20;74.80;;;;;;5008267;28;20700;-62
2022/05/13 11:12:14;;;;;;;84.32;10.15;;;23.20;74.70;;;;;;5023847;28;20949;-60
2022/05/13 11:15:09;;;;;;;78.00;9.65;;;23.20;74.70;;;;;;5027611;28;20066;-60
2022/05/13 11:17:53;;;;;;;91.10;9.93;;;23.10;74.60;;;;;;5026760;28;21894;-62
2022/05/13 11:20:30;;;;;;;98.38;11.80;;;23.20;74.70;;;;;;5020569;28;20051;-61
2022/05/13 11:23:21;;;;;;;78.78;10.43;;;23.20;74.50;;;;;;5026692;28;20047;-60
2022/05/13 11:26:05;;;;;;;74.10;8.98;;;23.10;74.50;;;;;;5028472;28;20148;-62
2022/05/13 11:28:45;;;;;;;53.78;8.63;;;23.10;74.50;;;;;;5030282;28;20647;-61
2022/05/13 11:31:37;;;;;;;45.45;7.65;;;23.10;74.50;;;;;;5026969;28;20464;-60
2022/05/13 11:34:22;;;;;;;59.15;8.25;;;23.10;74.20;;;;;;5031813;28;20040;-62
2022/05/13 11:37:12;;;;;;;39.70;7.57;;;23.10;73.90;;;;;;5020882;28;20061;-61
2022/05/13 11:39:46;;;;;;;55.17;7.45;;;23.10;73.80;;;;;;5033083;28;20029;-62
2022/05/13 11:42:35;;;;;;;39.55;6.55;;;23.10;73.50;;;;;;5019320;28;20029;-61
2022/05/13 11:45:16;;;;;;;47.08;7.65;;;23.20;73.10;;;;;;5022794;28;20773;-63
2022/05/13 11:48:02;;;;;;;42.53;7.03;;;23.20;73.40;;;;;;5024314;28;20033;-61
2022/05/13 11:50:29;;;;;;;27.67;5.68;;;23.10;73.10;;;;;;5032228;28;20025;-62
2022/05/13 11:52:55;;;;;;;36.63;7.03;;;23.10;73.00;;;;;;5009801;28;20098;-61
2022/05/13 11:55:41;;;;;;;39.53;6.30;;;23.10;72.80;;;;;;5031028;28;20024;-64
2022/05/13 11:58:07;;;;;;;28.15;5.05;;;23.10;72.90;;;;;;5030673;28;20112;-62
2022/05/13 12:00:41;;;;;;;29.00;5.75;;;23.10;72.30;;;;;;4988979;28;20038;-62
2022/05/13 12:03:09;;;;;;;57.90;6.88;;;23.20;71.90;;;;;;5022016;28;20040;-62
2022/05/13 12:05:48;;;;;;;53.83;7.78;;;23.20;71.70;;;;;;5020376;28;20036;-62
2022/05/13 12:08:31;;;;;;;41.13;7.40;;;23.20;71.60;;;;;;5024989;28;20029;-61
2022/05/13 12:11:25;;;;;;;35.88;5.65;;;23.20;71.60;;;;;;5018382;28;20072;-61
2022/05/13 12:14:05;;;;;;;41.22;6.45;;;23.20;71.60;;;;;;5029374;28;20051;-62
2022/05/13 12:17:11;;;;;;;36.28;6.07;;;23.20;71.80;;;;;;5034024;28;20127;-61
2022/05/13 12:19:53;;;;;;;57.10;7.13;;;23.20;71.90;;;;;;5023284;28;20488;-61
2022/05/13 12:22:30;;;;;;;37.75;6.20;;;23.20;72.10;;;;;;5026110;28;20721;-61
2022/05/13 12:25:04;;;;;;;43.28;7.35;;;23.20;72.10;;;;;;5032571;28;20029;-62
2022/05/13 12:27:43;;;;;;;41.45;6.57;;;23.20;72.40;;;;;;5011648;28;20464;-62
2022/05/13 12:30:11;;;;;;;43.90;6.18;;;23.20;72.80;;;;;;5014218;28;20043;-61
2022/05/13 12:32:43;;;;;;;47.85;7.10;;;23.20;72.90;;;;;;5030620;28;20028;-61
2022/05/13 12:37:55;;;;;;;38.50;6.97;;;23.20;73.60;;;;;;5018659;28;20036;-61
2022/05/13 12:40:26;;;;;;;61.45;9.10;;;23.20;73.90;;;;;;5027725;28;20052;-61
2022/05/13 12:42:55;;;;;;;59.95;9.05;;;23.20;74.70;;;;;;5034452;28;20079;-61
2022/05/13 12:45:36;;;;;;;50.22;8.43;;;23.20;74.70;;;;;;5017509;28;20111;-61
2022/05/13 12:48:06;;;;;;;53.05;7.07;;;23.20;74.70;;;;;;5033083;28;20028;-62
2022/05/13 12:50:42;;;;;;;42.47;6.70;;;23.20;75.00;;;;;;5037979;28;20043;-62
2022/05/13 12:53:43;;;;;;;;;;;23.20;74.90;;;;;;5034329;28;20159;-62
2022/05/13 12:56:20;;;;;;;101.53;15.05;;;23.20;74.90;;;;;;5008708;28;20529;-61
2022/05/13 12:58:48;;;;;;;53.45;8.90;;;23.30;75.90;;;;;;5023177;28;20051;-61
2022/05/13 13:01:14;;;;;;;71.88;11.18;;;23.40;75.60;;;;;;5000395;28;20028;-62
2022/05/13 13:03:41;;;;;;;56.20;8.68;;;23.30;75.10;;;;;;5020392;28;20021;-61
2022/05/13 13:06:20;;;;;;;78.57;9.75;;;23.30;75.20;;;;;;5013542;28;20045;-62
2022/05/13 13:08:47;;;;;;;74.28;10.65;;;23.30;75.50;;;;;;5037621;28;20033;-62
2022/05/13 13:11:13;;;;;;;84.53;9.52;;;23.30;75.40;;;;;;5023514;28;20037;-61
2022/05/13 13:14:08;;;;;;;53.58;9.57;;;23.30;75.40;;;;;;5042283;28;20139;-62
2022/05/13 13:16:59;;;;;;;62.08;9.00;;;23.30;75.50;;;;;;5029157;28;20079;-62